Time,TemperatureF,DewpointF,PressureIn,WindDirection,WindDirectionDegrees,WindSpeedMPH,WindSpeedGustMPH,Humidity,HourlyPrecipIn,Conditions,Clouds,dailyrainin,SoftwareType,DateUTC
2013-04-10 00:00:00,40.3,30.9,29.45,SE,135,5.0,8.0,69,0.00,CLR,CLR,0.00,WeatherDisplay:10.37,2013-04-09 23:00:00,
2013-04-10 00:10:00,40.3,30.9,29.45,SE,135,3.0,8.0,69,0.00,CLR,CLR,0.00,WeatherDisplay:10.37,2013-04-09 23:10:00,
2013-04-10 00:20:00,40.3,30.9,29.45,SE,135,2.0,6.0,69,0.00,CLR,CLR,0.00,WeatherDisplay:10.37,2013-04-09 23:20:00,
2013-04-10 00:30:00,40.5,31.4,29.46,SE,135,3.0,6.0,70,0.00,CLR,CLR,0.00,WeatherDisplay:10.37,2013-04-09 23:30:00,
2013-04-10 00:40:00,40.6,31.6,29.45,SE,135,5.0,7.0,70,0.00,CLR,CLR,0.00,WeatherDisplay:10.37,2013-04-09 23:40:00,
2013-04-10 00:50:00,40.8,31.4,29.45,SE,135,5.0,7.0,69,0.00,CLR,CLR,0.00,WeatherDisplay:10.37,2013-04-09 23:50:00,
2013-04-10 01:00:00,41.0,31.2,29.45,SE,135,3.0,8.0,68,0.00,CLR,CLR,0.00,WeatherDisplay:10.37,2013-04-10 00:00:00,
2013-04-10 01:10:00,41.0,31.2,29.45,SE,135,5.0,8.0,68,0.00,CLR,CLR,0.00,WeatherDisplay:10.37,2013-04-10 00:10:00,
2013-04-10 01:20:00,41.0,31.2,29.45,SE,135,3.0,6.0,68,0.00,CLR,CLR,0.00,WeatherDisplay:10.37,2013-04-10 00:20:00,
2013-04-10 01:30:00,41.0,31.6,29.45,SE,135,3.0,7.0,69,0.00,CLR,CLR,0.00,WeatherDisplay:10.37,2013-04-10 00:30:00,
2013-04-10 01:40:00,41.0,31.6,29.45,SE,135,3.0,6.0,69,0.00,CLR,CLR,0.00,WeatherDisplay:10.37,2013-04-10 00:40:00,
2013-04-10 01:50:00,40.8,32.5,29.45,SE,135,2.0,7.0,72,0.00,CLR,CLR,0.00,WeatherDisplay:10.37,2013-04-10 00:50:00,
2013-04-10 02:00:00,40.6,32.7,29.45,SE,135,2.0,6.0,73,0.00,CLR,CLR,0.00,WeatherDisplay:10.37,2013-04-10 01:00:00,
2013-04-10 02:10:00,40.8,32.8,29.45,SE,135,3.0,7.0,73,0.00,CLR,CLR,0.00,WeatherDisplay:10.37,2013-04-10 01:10:00,
2013-04-10 02:20:00,40.8,32.8,29.44,SE,135,2.0,7.0,73,0.00,CLR,CLR,0.00,WeatherDisplay:10.37,2013-04-10 01:20:00,
2013-04-10 02:30:00,40.8,32.8,29.44,SE,135,5.0,8.0,73,0.00,CLR,CLR,0.00,WeatherDisplay:10.37,2013-04-10 01:30:00,
2013-04-10 02:40:00,40.5,32.8,29.44,SE,135,3.0,8.0,74,0.00,CLR,CLR,0.00,WeatherDisplay:10.37,2013-04-10 01:40:00,
2013-04-10 02:50:00,40.1,32.8,29.44,SE,135,3.0,7.0,75,0.00,CLR,CLR,0.00,WeatherDisplay:10.37,2013-04-10 01:50:00,
2013-04-10 03:00:00,39.9,32.6,29.44,SE,135,5.0,7.0,75,0.00,CLR,CLR,0.00,WeatherDisplay:10.37,2013-04-10 02:00:00,
2013-04-10 03:10:00,39.7,32.8,29.44,SE,135,3.0,7.0,76,0.00,CLR,CLR,0.00,WeatherDisplay:10.37,2013-04-10 02:10:00,
2013-04-10 03:20:00,39.6,32.9,29.44,SE,135,5.0,8.0,77,0.00,CLR,CLR,0.00,WeatherDisplay:10.37,2013-04-10 02:20:00,
2013-04-10 03:30:00,39.6,32.9,29.44,SE,135,6.0,8.0,77,0.00,CLR,CLR,0.00,WeatherDisplay:10.37,2013-04-10 02:30:00,
2013-04-10 03:40:00,39.6,33.3,29.44,SE,135,6.0,10.0,78,0.00,CLR,CLR,0.00,WeatherDisplay:10.37,2013-04-10 02:40:00,
2013-04-10 03:50:00,39.6,33.6,29.44,SE,135,3.0,9.0,79,0.00,CLR,CLR,0.00,WeatherDisplay:10.37,2013-04-10 02:50:00,
2013-04-10 04:00:00,39.2,33.6,29.43,SE,135,5.0,8.0,80,0.00,CLR,CLR,0.00,WeatherDisplay:10.37,2013-04-10 03:00:00,
2013-04-10 04:10:00,39.2,33.9,29.43,SE,135,5.0,8.0,81,0.00,CLR,CLR,0.00,WeatherDisplay:10.37,2013-04-10 03:10:00,
2013-04-10 04:20:00,39.2,34.2,29.43,SE,135,5.0,9.0,82,0.00,CLR,CLR,0.00,WeatherDisplay:10.37,2013-04-10 03:20:00,
2013-04-10 04:30:00,39.0,34.3,29.43,SE,135,6.0,10.0,83,0.00,CLR,CLR,0.00,WeatherDisplay:10.37,2013-04-10 03:30:00,
2013-04-10 04:40:00,39.0,34.6,29.43,SE,135,7.0,11.0,84,0.00,CLR,CLR,0.00,WeatherDisplay:10.37,2013-04-10 03:40:00,
2013-04-10 04:50:00,38.8,34.7,29.42,SE,135,5.0,10.0,85,0.00,CLR,CLR,0.00,WeatherDisplay:10.37,2013-04-10 03:50:00,
2013-04-10 05:00:00,38.7,34.5,29.42,SE,135,5.0,9.0,85,0.00,CLR,CLR,0.00,WeatherDisplay:10.37,2013-04-10 04:00:00,
2013-04-10 05:10:00,39.0,35.2,29.42,SE,135,5.0,9.0,86,0.00,CLR,CLR,0.00,WeatherDisplay:10.37,2013-04-10 04:10:00,
2013-04-10 05:20:00,38.9,35.1,29.42,SE,135,6.0,8.0,86,0.00,CLR,CLR,0.00,WeatherDisplay:10.37,2013-04-10 04:20:00,
2013-04-10 05:30:00,39.0,35.2,29.42,SE,135,6.0,10.0,86,0.01,RA,RA,0.01,WeatherDisplay:10.37,2013-04-10 04:30:00,
2013-04-10 05:40:00,38.8,35.0,29.42,SE,135,6.0,11.0,86,0.00,CLR,CLR,0.01,WeatherDisplay:10.37,2013-04-10 04:40:00,
2013-04-10 05:50:00,38.9,35.0,29.42,SE,135,8.0,13.0,86,0.00,CLR,CLR,0.01,WeatherDisplay:10.37,2013-04-10 04:50:00,
2013-04-10 06:00:00,38.8,35.0,29.42,SE,135,5.0,11.0,86,0.00,CLR,CLR,0.01,WeatherDisplay:10.37,2013-04-10 05:00:00,
2013-04-10 06:10:00,38.8,35.0,29.42,SE,135,6.0,11.0,86,0.00,CLR,CLR,0.01,WeatherDisplay:10.37,2013-04-10 05:10:00,
2013-04-10 06:20:00,38.8,35.0,29.42,SE,135,5.0,10.0,86,0.00,CLR,CLR,0.01,WeatherDisplay:10.37,2013-04-10 05:20:00,
2013-04-10 06:30:00,38.7,34.8,29.42,SE,135,5.0,10.0,86,0.00,CLR,CLR,0.01,WeatherDisplay:10.37,2013-04-10 05:30:00,
2013-04-10 06:40:00,38.5,34.7,29.41,SE,135,7.0,12.0,86,0.00,CLR,CLR,0.01,WeatherDisplay:10.37,2013-04-10 05:40:00,
2013-04-10 06:50:00,38.5,34.7,29.41,SE,135,9.0,12.0,86,0.00,CLR,CLR,0.01,WeatherDisplay:10.37,2013-04-10 05:50:00,
2013-04-10 07:00:00,38.7,35.1,29.41,SE,135,7.0,12.0,87,0.00,CLR,CLR,0.01,WeatherDisplay:10.37,2013-04-10 06:00:00,
2013-04-10 07:10:00,38.7,35.1,29.41,SE,135,6.0,9.0,87,0.00,CLR,CLR,0.01,WeatherDisplay:10.37,2013-04-10 06:10:00,
2013-04-10 07:20:00,38.8,35.3,29.41,SE,135,5.0,10.0,87,0.00,CLR,CLR,0.01,WeatherDisplay:10.37,2013-04-10 06:20:00,
2013-04-10 07:30:00,39.2,35.4,29.41,SE,135,6.0,10.0,86,0.00,CLR,CLR,0.01,WeatherDisplay:10.37,2013-04-10 06:30:00,
2013-04-10 07:40:00,39.2,35.4,29.41,SE,135,5.0,11.0,86,0.00,CLR,CLR,0.01,WeatherDisplay:10.37,2013-04-10 06:40:00,
2013-04-10 07:50:00,39.4,35.5,29.41,SE,135,7.0,9.0,86,0.00,CLR,CLR,0.01,WeatherDisplay:10.37,2013-04-10 06:50:00,
2013-04-10 08:00:00,39.6,35.7,29.42,SE,135,7.0,11.0,86,0.00,CLR,CLR,0.01,WeatherDisplay:10.37,2013-04-10 07:00:00,
2013-04-10 08:10:00,39.9,36.1,29.41,SE,135,5.0,11.0,86,0.00,CLR,CLR,0.01,WeatherDisplay:10.37,2013-04-10 07:10:00,
2013-04-10 08:20:00,40.5,36.6,29.41,SE,135,7.0,11.0,86,0.00,CLR,CLR,0.01,WeatherDisplay:10.37,2013-04-10 07:20:00,
2013-04-10 08:30:00,40.8,36.7,29.41,SE,135,7.0,10.0,85,0.00,CLR,CLR,0.01,WeatherDisplay:10.37,2013-04-10 07:30:00,
2013-04-10 08:40:00,41.2,36.7,29.41,SE,135,7.0,12.0,84,0.00,CLR,CLR,0.01,WeatherDisplay:10.37,2013-04-10 07:40:00,
2013-04-10 08:50:00,41.7,36.9,29.41,SE,135,6.0,12.0,83,0.00,CLR,CLR,0.01,WeatherDisplay:10.37,2013-04-10 07:50:00,
2013-04-10 09:00:00,41.9,36.8,29.41,SE,135,7.0,13.0,82,0.00,CLR,CLR,0.01,WeatherDisplay:10.37,2013-04-10 08:00:00,
2013-04-10 09:10:00,41.7,36.9,29.41,SE,135,7.0,13.0,83,0.00,CLR,CLR,0.01,WeatherDisplay:10.37,2013-04-10 08:10:00,
2013-04-10 09:20:00,41.9,36.8,29.41,SE,135,8.0,13.0,82,0.00,CLR,CLR,0.01,WeatherDisplay:10.37,2013-04-10 08:20:00,
2013-04-10 09:30:00,42.3,37.5,29.41,SE,135,7.0,12.0,83,0.00,CLR,CLR,0.01,WeatherDisplay:10.37,2013-04-10 08:30:00,
2013-04-10 09:40:00,43.0,37.5,29.41,SE,135,7.0,13.0,81,0.00,CLR,CLR,0.01,WeatherDisplay:10.37,2013-04-10 08:40:00,
2013-04-10 09:50:00,43.2,37.4,29.41,SE,135,9.0,13.0,80,0.00,CLR,CLR,0.01,WeatherDisplay:10.37,2013-04-10 08:50:00,
2013-04-10 10:00:00,43.5,37.4,29.41,SE,135,8.0,13.0,79,0.00,CLR,CLR,0.01,WeatherDisplay:10.37,2013-04-10 09:00:00,
2013-04-10 10:10:00,43.5,37.1,29.41,SE,135,8.0,13.0,78,0.00,CLR,CLR,0.01,WeatherDisplay:10.37,2013-04-10 09:10:00,
2013-04-10 10:20:00,43.8,37.0,29.41,SE,135,9.0,14.0,77,0.00,CLR,CLR,0.01,WeatherDisplay:10.37,2013-04-10 09:20:00,
2013-04-10 10:30:00,44.5,37.8,29.41,SE,135,7.0,13.0,77,0.00,CLR,CLR,0.01,WeatherDisplay:10.37,2013-04-10 09:30:00,
2013-04-10 10:40:00,45.3,37.9,29.40,SE,135,7.0,13.0,75,0.00,CLR,CLR,0.01,WeatherDisplay:10.37,2013-04-10 09:40:00,
2013-04-10 10:50:00,46.2,38.4,29.40,SE,135,8.0,13.0,74,0.00,CLR,CLR,0.01,WeatherDisplay:10.37,2013-04-10 09:50:00,
2013-04-10 11:00:00,46.2,38.0,29.40,SE,135,7.0,13.0,73,0.00,CLR,CLR,0.01,WeatherDisplay:10.37,2013-04-10 10:00:00,
2013-04-10 11:10:00,46.6,39.1,29.40,SE,135,9.0,13.0,75,0.00,CLR,CLR,0.01,WeatherDisplay:10.37,2013-04-10 10:10:00,
2013-04-10 11:20:00,46.8,38.2,29.40,SE,135,8.0,14.0,72,0.00,CLR,CLR,0.01,WeatherDisplay:10.37,2013-04-10 10:20:00,
2013-04-10 11:30:00,47.3,39.1,29.40,SE,135,8.0,12.0,73,0.00,CLR,CLR,0.01,WeatherDisplay:10.37,2013-04-10 10:30:00,
2013-04-10 11:40:00,48.7,39.4,29.39,SE,135,6.0,13.0,70,0.00,CLR,CLR,0.01,WeatherDisplay:10.37,2013-04-10 10:40:00,
2013-04-10 11:50:00,49.3,39.2,29.39,SE,135,9.0,13.0,68,0.00,CLR,CLR,0.01,WeatherDisplay:10.37,2013-04-10 10:50:00,
2013-04-10 12:00:00,49.8,39.7,29.39,SE,135,9.0,13.0,68,0.00,CLR,CLR,0.01,WeatherDisplay:10.37,2013-04-10 11:00:00,
2013-04-10 12:10:00,49.4,38.9,29.39,SE,135,7.0,13.0,67,0.00,CLR,CLR,0.01,WeatherDisplay:10.37,2013-04-10 11:10:00,
2013-04-10 12:20:00,50.7,39.4,29.39,SE,135,7.0,12.0,65,0.00,CLR,CLR,0.01,WeatherDisplay:10.37,2013-04-10 11:20:00,
2013-04-10 12:30:00,51.4,39.7,29.39,SE,135,9.0,13.0,64,0.00,CLR,CLR,0.01,WeatherDisplay:10.37,2013-04-10 11:30:00,
2013-04-10 12:40:00,51.0,39.3,29.38,SE,135,7.0,13.0,64,0.00,CLR,CLR,0.01,WeatherDisplay:10.37,2013-04-10 11:40:00,
2013-04-10 12:50:00,50.0,38.7,29.38,SE,135,8.0,13.0,65,0.00,CLR,CLR,0.01,WeatherDisplay:10.37,2013-04-10 11:50:00,
2013-04-10 13:00:00,48.9,38.5,29.39,SE,135,9.0,15.0,67,0.00,CLR,CLR,0.01,WeatherDisplay:10.37,2013-04-10 12:00:00,
2013-04-10 13:10:00,48.7,38.6,29.38,SE,135,7.0,11.0,68,0.00,CLR,CLR,0.01,WeatherDisplay:10.37,2013-04-10 12:10:00,
2013-04-10 13:20:00,49.1,38.6,29.38,SE,135,5.0,10.0,67,0.00,CLR,CLR,0.01,WeatherDisplay:10.37,2013-04-10 12:20:00,
2013-04-10 13:30:00,49.5,39.0,29.38,SE,135,9.0,13.0,67,0.00,CLR,CLR,0.01,WeatherDisplay:10.37,2013-04-10 12:30:00,
2013-04-10 13:40:00,49.6,38.7,29.37,SE,135,9.0,13.0,66,0.00,CLR,CLR,0.01,WeatherDisplay:10.37,2013-04-10 12:40:00,
2013-04-10 13:50:00,50.5,39.2,29.37,SE,135,10.0,13.0,65,0.00,CLR,CLR,0.01,WeatherDisplay:10.37,2013-04-10 12:50:00,
2013-04-10 14:00:00,51.3,39.1,29.37,SE,135,10.0,15.0,63,0.00,CLR,CLR,0.01,WeatherDisplay:10.37,2013-04-10 13:00:00,
2013-04-10 14:10:00,52.6,39.9,29.36,SE,135,5.0,13.0,62,0.00,CLR,CLR,0.01,WeatherDisplay:10.37,2013-04-10 13:10:00,
2013-04-10 14:20:00,54.6,39.6,29.36,SE,135,5.0,13.0,57,0.00,CLR,CLR,0.01,WeatherDisplay:10.37,2013-04-10 13:20:00,
2013-04-10 14:30:00,54.6,39.2,29.35,SE,135,9.0,17.0,56,0.00,CLR,CLR,0.01,WeatherDisplay:10.37,2013-04-10 13:30:00,
2013-04-10 14:40:00,53.1,37.3,29.35,SE,135,7.0,15.0,55,0.00,CLR,CLR,0.01,WeatherDisplay:10.37,2013-04-10 13:40:00,
2013-04-10 14:50:00,54.0,38.6,29.35,SE,135,10.0,13.0,56,0.00,CLR,CLR,0.01,WeatherDisplay:10.37,2013-04-10 13:50:00,
2013-04-10 15:00:00,52.7,37.8,29.35,SE,135,9.0,16.0,57,0.00,CLR,CLR,0.01,WeatherDisplay:10.37,2013-04-10 14:00:00,
2013-04-10 15:10:00,52.0,38.1,29.35,SE,135,8.0,15.0,59,0.00,CLR,CLR,0.01,WeatherDisplay:10.37,2013-04-10 14:10:00,
2013-04-10 15:20:00,51.8,38.3,29.35,SE,135,12.0,15.0,60,0.00,CLR,CLR,0.01,WeatherDisplay:10.37,2013-04-10 14:20:00,
2013-04-10 15:30:00,51.7,40.3,29.34,SE,135,6.0,14.0,65,0.00,CLR,CLR,0.01,WeatherDisplay:10.37,2013-04-10 14:30:00,
2013-04-10 15:40:00,53.3,40.6,29.34,SE,135,6.0,15.0,62,0.00,CLR,CLR,0.01,WeatherDisplay:10.37,2013-04-10 14:40:00,
2013-04-10 15:50:00,52.5,39.8,29.34,SE,135,13.0,17.0,62,0.00,CLR,CLR,0.01,WeatherDisplay:10.37,2013-04-10 14:50:00,
2013-04-10 16:00:00,49.0,38.2,29.34,SE,135,2.0,17.0,66,0.01,RA,RA,0.02,WeatherDisplay:10.37,2013-04-10 15:00:00,
2013-04-10 16:10:00,49.4,39.7,29.34,SE,135,0.0,6.0,69,0.01,RA,RA,0.04,WeatherDisplay:10.37,2013-04-10 15:10:00,
2013-04-10 16:20:00,53.4,42.4,29.34,SE,135,6.0,9.0,66,0.00,CLR,CLR,0.04,WeatherDisplay:10.37,2013-04-10 15:20:00,
2013-04-10 16:30:00,51.4,41.2,29.33,SE,135,12.0,17.0,68,0.00,CLR,CLR,0.04,WeatherDisplay:10.37,2013-04-10 15:30:00,
2013-04-10 16:40:00,50.9,40.3,29.33,SE,135,12.0,17.0,67,0.00,CLR,CLR,0.04,WeatherDisplay:10.37,2013-04-10 15:40:00,
2013-04-10 16:50:00,50.9,40.3,29.33,SE,135,14.0,17.0,67,0.00,CLR,CLR,0.04,WeatherDisplay:10.37,2013-04-10 15:50:00,
2013-04-10 17:00:00,50.5,40.3,29.33,SE,135,10.0,16.0,68,0.00,CLR,CLR,0.04,WeatherDisplay:10.37,2013-04-10 16:00:00,
2013-04-10 17:10:00,50.0,39.5,29.33,SE,135,15.0,20.0,67,0.00,CLR,CLR,0.04,WeatherDisplay:10.37,2013-04-10 16:10:00,
2013-04-10 17:20:00,48.6,41.1,29.33,SSE,156,9.0,20.0,75,0.00,CLR,CLR,0.04,WeatherDisplay:10.37,2013-04-10 16:20:00,
2013-04-10 17:30:00,47.7,41.8,29.33,SSE,158,5.0,13.0,80,0.00,CLR,CLR,0.04,WeatherDisplay:10.37,2013-04-10 16:30:00,
2013-04-10 17:40:00,48.1,42.3,29.32,SSE,158,3.0,6.0,80,0.00,CLR,CLR,0.04,WeatherDisplay:10.37,2013-04-10 16:40:00,
2013-04-10 17:50:00,49.3,43.4,29.32,SSE,158,3.0,6.0,80,0.00,CLR,CLR,0.04,WeatherDisplay:10.37,2013-04-10 16:50:00,
2013-04-10 18:00:00,49.8,43.9,29.32,SSE,158,3.0,6.0,80,0.00,CLR,CLR,0.04,WeatherDisplay:10.37,2013-04-10 17:00:00,
2013-04-10 18:10:00,49.6,42.7,29.32,SSE,158,3.0,8.0,77,0.00,CLR,CLR,0.04,WeatherDisplay:10.37,2013-04-10 17:10:00,
2013-04-10 18:20:00,50.0,42.7,29.31,SSE,158,5.0,6.0,76,0.00,CLR,CLR,0.04,WeatherDisplay:10.37,2013-04-10 17:20:00,
2013-04-10 18:30:00,50.2,42.9,29.31,SSE,158,6.0,11.0,76,0.00,CLR,CLR,0.04,WeatherDisplay:10.37,2013-04-10 17:30:00,
2013-04-10 18:40:00,50.0,41.7,29.31,SSE,158,8.0,12.0,73,0.00,CLR,CLR,0.04,WeatherDisplay:10.37,2013-04-10 17:40:00,
2013-04-10 18:50:00,50.0,40.6,29.31,SSE,158,9.0,14.0,70,0.00,CLR,CLR,0.04,WeatherDisplay:10.37,2013-04-10 17:50:00,
2013-04-10 19:00:00,50.0,40.2,29.31,SSE,158,12.0,15.0,69,0.00,CLR,CLR,0.04,WeatherDisplay:10.37,2013-04-10 18:00:00,
2013-04-10 19:10:00,49.7,40.7,29.30,SSE,158,9.0,13.0,71,0.00,CLR,CLR,0.04,WeatherDisplay:10.37,2013-04-10 18:10:00,
2013-04-10 19:20:00,49.3,40.6,29.31,SSE,158,8.0,14.0,72,0.00,CLR,CLR,0.04,WeatherDisplay:10.37,2013-04-10 18:20:00,
2013-04-10 19:30:00,48.8,40.2,29.31,SSE,158,12.0,15.0,72,0.00,CLR,CLR,0.04,WeatherDisplay:10.37,2013-04-10 18:30:00,
2013-04-10 19:40:00,48.6,40.3,29.31,SSE,158,9.0,15.0,73,0.00,CLR,CLR,0.04,WeatherDisplay:10.37,2013-04-10 18:40:00,
2013-04-10 19:50:00,48.2,40.3,29.31,SSE,158,9.0,14.0,74,0.00,CLR,CLR,0.04,WeatherDisplay:10.37,2013-04-10 18:50:00,
2013-04-10 20:00:00,47.7,40.5,29.30,SSE,158,8.0,13.0,76,0.00,CLR,CLR,0.04,WeatherDisplay:10.37,2013-04-10 19:00:00,
2013-04-10 20:10:00,47.5,40.3,29.30,SSE,158,6.0,13.0,76,0.00,CLR,CLR,0.04,WeatherDisplay:10.37,2013-04-10 19:10:00,
2013-04-10 20:20:00,47.1,39.9,29.31,SSE,158,6.0,12.0,76,0.00,CLR,CLR,0.04,WeatherDisplay:10.37,2013-04-10 19:20:00,
2013-04-10 20:30:00,47.1,40.3,29.31,SSE,158,9.0,14.0,77,0.00,CLR,CLR,0.04,WeatherDisplay:10.37,2013-04-10 19:30:00,
2013-04-10 20:40:00,47.1,40.3,29.30,SSE,158,7.0,13.0,77,0.00,CLR,CLR,0.04,WeatherDisplay:10.37,2013-04-10 19:40:00,
2013-04-10 20:50:00,46.9,40.1,29.31,SSE,158,9.0,13.0,77,0.00,CLR,CLR,0.04,WeatherDisplay:10.37,2013-04-10 19:50:00,
2013-04-10 21:00:00,46.8,40.3,29.30,SSE,158,8.0,15.0,78,0.00,CLR,CLR,0.04,WeatherDisplay:10.37,2013-04-10 20:00:00,
2013-04-10 21:10:00,46.6,40.4,29.30,SSE,158,8.0,16.0,79,0.00,CLR,CLR,0.04,WeatherDisplay:10.37,2013-04-10 20:10:00,
2013-04-10 21:20:00,46.2,40.7,29.30,SSE,158,7.0,14.0,81,0.00,CLR,CLR,0.04,WeatherDisplay:10.37,2013-04-10 20:20:00,
2013-04-10 21:30:00,46.0,40.9,29.30,SSE,158,8.0,13.0,82,0.00,CLR,CLR,0.04,WeatherDisplay:10.37,2013-04-10 20:30:00,
2013-04-10 21:40:00,45.9,40.7,29.30,SSE,158,6.0,14.0,82,0.00,CLR,CLR,0.04,WeatherDisplay:10.37,2013-04-10 20:40:00,
2013-04-10 21:50:00,45.9,40.7,29.30,SSE,158,8.0,13.0,82,0.00,CLR,CLR,0.04,WeatherDisplay:10.37,2013-04-10 20:50:00,
2013-04-10 22:00:00,45.9,40.7,29.30,SSE,158,8.0,14.0,82,0.00,CLR,CLR,0.04,WeatherDisplay:10.37,2013-04-10 21:00:00,
2013-04-10 22:10:00,45.7,40.5,29.30,SSE,158,12.0,15.0,82,0.00,CLR,CLR,0.04,WeatherDisplay:10.37,2013-04-10 21:10:00,
2013-04-10 22:20:00,45.7,40.5,29.30,SSE,158,8.0,15.0,82,0.00,CLR,CLR,0.04,WeatherDisplay:10.37,2013-04-10 21:20:00,
2013-04-10 22:30:00,45.7,40.8,29.29,SSE,158,8.0,13.0,83,0.00,CLR,CLR,0.04,WeatherDisplay:10.37,2013-04-10 21:30:00,
2013-04-10 22:40:00,45.5,40.6,29.29,SSE,158,7.0,13.0,83,0.00,CLR,CLR,0.04,WeatherDisplay:10.37,2013-04-10 21:40:00,
2013-04-10 22:50:00,45.5,40.9,29.28,SSE,158,9.0,16.0,84,0.00,CLR,CLR,0.04,WeatherDisplay:10.37,2013-04-10 21:50:00,
2013-04-10 23:00:00,45.5,40.9,29.28,SSE,158,9.0,15.0,84,0.00,CLR,CLR,0.04,WeatherDisplay:10.37,2013-04-10 22:00:00,
2013-04-10 23:10:00,45.5,40.9,29.28,SSE,158,12.0,15.0,84,0.00,CLR,CLR,0.04,WeatherDisplay:10.37,2013-04-10 22:10:00,
2013-04-10 23:20:00,45.5,40.9,29.27,SSE,158,9.0,15.0,84,0.00,CLR,CLR,0.04,WeatherDisplay:10.37,2013-04-10 22:20:00,
2013-04-10 23:30:00,45.3,40.8,29.27,SSE,158,8.0,16.0,84,0.00,CLR,CLR,0.04,WeatherDisplay:10.37,2013-04-10 22:30:00,
2013-04-10 23:40:00,45.1,40.6,29.27,SSE,158,9.0,14.0,84,0.00,CLR,CLR,0.04,WeatherDisplay:10.37,2013-04-10 22:40:00,
2013-04-10 23:50:00,45.1,40.6,29.27,SSE,158,9.0,15.0,84,0.00,CLR,CLR,0.04,WeatherDisplay:10.37,2013-04-10 22:50:00,